sensor_id;sensor_type;location;lat;lon;timestamp;P1;durP1;ratioP1;P2;durP2;ratioP2
58685;SDS011;44465;53.206;-6.106;2023-02-28T00:01:11;10.23;;;2.58;;
58685;SDS011;44465;53.206;-6.106;2023-02-28T00:03:38;10.43;;;2.45;;
58685;SDS011;44465;53.206;-6.106;2023-02-28T00:06:04;8.02;;;2.45;;
58685;SDS011;44465;53.206;-6.106;2023-02-28T00:08:31;10.45;;;2.63;;
58685;SDS011;44465;53.206;-6.106;2023-02-28T00:11:00;7.53;;;2.30;;
58685;SDS011;44465;53.206;-6.106;2023-02-28T00:13:30;7.97;;;2.00;;
58685;SDS011;44465;53.206;-6.106;2023-02-28T00:16:00;6.95;;;2.25;;
58685;SDS011;44465;53.206;-6.106;2023-02-28T00:18:26;6.57;;;2.40;;
58685;SDS011;44465;53.206;-6.106;2023-02-28T00:20:52;8.45;;;2.25;;
58685;SDS011;44465;53.206;-6.106;2023-02-28T00:23:18;6.32;;;2.00;;
58685;SDS011;44465;53.206;-6.106;2023-02-28T00:25:43;5.00;;;1.83;;
58685;SDS011;44465;53.206;-6.106;2023-02-28T00:28:09;6.70;;;1.83;;
58685;SDS011;44465;53.206;-6.106;2023-02-28T00:30:34;4.85;;;1.90;;
58685;SDS011;44465;53.206;-6.106;2023-02-28T00:33:03;3.67;;;1.52;;
58685;SDS011;44465;53.206;-6.106;2023-02-28T00:35:29;5.90;;;2.00;;
58685;SDS011;44465;53.206;-6.106;2023-02-28T00:37:54;6.25;;;1.90;;
58685;SDS011;44465;53.206;-6.106;2023-02-28T00:40:20;4.78;;;1.70;;
58685;SDS011;44465;53.206;-6.106;2023-02-28T00:42:46;5.63;;;1.80;;
58685;SDS011;44465;53.206;-6.106;2023-02-28T00:45:11;4.68;;;1.55;;
58685;SDS011;44465;53.206;-6.106;2023-02-28T00:47:37;7.18;;;2.25;;
58685;SDS011;44465;53.206;-6.106;2023-02-28T00:50:03;5.78;;;2.22;;
58685;SDS011;44465;53.206;-6.106;2023-02-28T00:52:29;3.92;;;1.90;;
58685;SDS011;44465;53.206;-6.106;2023-02-28T00:54:55;4.40;;;1.80;;
58685;SDS011;44465;53.206;-6.106;2023-02-28T00:57:20;7.85;;;1.58;;
58685;SDS011;44465;53.206;-6.106;2023-02-28T00:59:47;5.65;;;2.22;;
58685;SDS011;44465;53.206;-6.106;2023-02-28T01:02:13;4.72;;;1.52;;
58685;SDS011;44465;53.206;-6.106;2023-02-28T01:04:38;3.33;;;1.40;;
58685;SDS011;44465;53.206;-6.106;2023-02-28T01:07:04;6.57;;;1.70;;
58685;SDS011;44465;53.206;-6.106;2023-02-28T01:09:30;7.68;;;1.65;;
58685;SDS011;44465;53.206;-6.106;2023-02-28T01:11:57;5.13;;;1.40;;
58685;SDS011;44465;53.206;-6.106;2023-02-28T01:14:23;5.32;;;1.38;;
58685;SDS011;44465;53.206;-6.106;2023-02-28T01:16:49;3.55;;;1.48;;
58685;SDS011;44465;53.206;-6.106;2023-02-28T01:19:15;6.07;;;1.58;;
58685;SDS011;44465;53.206;-6.106;2023-02-28T01:21:40;3.42;;;1.27;;
58685;SDS011;44465;53.206;-6.106;2023-02-28T01:24:06;4.55;;;1.40;;
58685;SDS011;44465;53.206;-6.106;2023-02-28T01:26:34;2.38;;;1.10;;
58685;SDS011;44465;53.206;-6.106;2023-02-28T01:28:59;5.60;;;1.17;;
58685;SDS011;44465;53.206;-6.106;2023-02-28T01:31:25;3.85;;;1.60;;
58685;SDS011;44465;53.206;-6.106;2023-02-28T01:33:51;3.30;;;1.08;;
58685;SDS011;44465;53.206;-6.106;2023-02-28T01:36:17;3.05;;;1.50;;
58685;SDS011;44465;53.206;-6.106;2023-02-28T01:38:44;2.75;;;1.27;;
58685;SDS011;44465;53.206;-6.106;2023-02-28T01:41:18;4.38;;;1.23;;
58685;SDS011;44465;53.206;-6.106;2023-02-28T01:46:13;2.85;;;1.27;;
58685;SDS011;44465;53.206;-6.106;2023-02-28T01:48:40;3.43;;;1.80;;
58685;SDS011;44465;53.206;-6.106;2023-02-28T01:51:13;3.55;;;1.10;;
58685;SDS011;44465;53.206;-6.106;2023-02-28T01:53:44;4.55;;;1.23;;
58685;SDS011;44465;53.206;-6.106;2023-02-28T01:56:15;2.67;;;1.23;;
58685;SDS011;44465;53.206;-6.106;2023-02-28T01:58:48;4.03;;;1.20;;
58685;SDS011;44465;53.206;-6.106;2023-02-28T02:01:15;3.20;;;1.38;;
58685;SDS011;44465;53.206;-6.106;2023-02-28T02:03:59;2.42;;;1.00;;
58685;SDS011;44465;53.206;-6.106;2023-02-28T02:06:30;1.45;;;1.08;;
58685;SDS011;44465;53.206;-6.106;2023-02-28T02:08:59;4.28;;;1.13;;
58685;SDS011;44465;53.206;-6.106;2023-02-28T02:11:24;1.75;;;1.13;;
58685;SDS011;44465;53.206;-6.106;2023-02-28T02:14:16;1.40;;;0.68;;
58685;SDS011;44465;53.206;-6.106;2023-02-28T02:36:27;1.63;;;0.80;;
58685;SDS011;44465;53.206;-6.106;2023-02-28T02:39:13;1.48;;;0.77;;
58685;SDS011;44465;53.206;-6.106;2023-02-28T02:44:21;1.88;;;0.95;;
58685;SDS011;44465;53.206;-6.106;2023-02-28T02:46:48;2.65;;;1.00;;
58685;SDS011;44465;53.206;-6.106;2023-02-28T02:49:24;0.68;;;0.68;;
58685;SDS011;44465;53.206;-6.106;2023-02-28T02:51:56;2.03;;;1.00;;
58685;SDS011;44465;53.206;-6.106;2023-02-28T02:54:27;0.50;;;0.50;;
58685;SDS011;44465;53.206;-6.106;2023-02-28T02:56:59;2.95;;;1.27;;
58685;SDS011;44465;53.206;-6.106;2023-02-28T02:59:28;0.80;;;0.80;;
58685;SDS011;44465;53.206;-6.106;2023-02-28T03:01:57;1.08;;;0.90;;
58685;SDS011;44465;53.206;-6.106;2023-02-28T03:04:27;1.90;;;0.80;;
58685;SDS011;44465;53.206;-6.106;2023-02-28T03:07:00;1.15;;;0.63;;
58685;SDS011;44465;53.206;-6.106;2023-02-28T03:09:26;1.08;;;0.70;;
58685;SDS011;44465;53.206;-6.106;2023-02-28T03:11:52;3.00;;;0.77;;
58685;SDS011;44465;53.206;-6.106;2023-02-28T03:14:36;1.58;;;0.60;;
58685;SDS011;44465;53.206;-6.106;2023-02-28T03:23:04;3.15;;;0.73;;
58685;SDS011;44465;53.206;-6.106;2023-02-28T03:31:19;1.67;;;0.70;;
58685;SDS011;44465;53.206;-6.106;2023-02-28T03:33:55;0.85;;;0.70;;
58685;SDS011;44465;53.206;-6.106;2023-02-28T03:36:36;1.45;;;0.52;;
58685;SDS011;44465;53.206;-6.106;2023-02-28T03:39:13;1.08;;;0.70;;
58685;SDS011;44465;53.206;-6.106;2023-02-28T03:41:49;1.77;;;0.68;;
58685;SDS011;44465;53.206;-6.106;2023-02-28T03:44:21;1.08;;;0.82;;
58685;SDS011;44465;53.206;-6.106;2023-02-28T03:46:57;3.15;;;0.73;;
58685;SDS011;44465;53.206;-6.106;2023-02-28T03:49:30;1.35;;;0.80;;
58685;SDS011;44465;53.206;-6.106;2023-02-28T03:52:01;0.68;;;0.50;;
58685;SDS011;44465;53.206;-6.106;2023-02-28T03:54:32;1.27;;;0.50;;
58685;SDS011;44465;53.206;-6.106;2023-02-28T03:59:58;1.55;;;0.60;;
58685;SDS011;44465;53.206;-6.106;2023-02-28T04:02:37;2.00;;;0.90;;
58685;SDS011;44465;53.206;-6.106;2023-02-28T04:05:05;0.77;;;0.40;;
58685;SDS011;44465;53.206;-6.106;2023-02-28T04:07:31;0.70;;;0.50;;
58685;SDS011;44465;53.206;-6.106;2023-02-28T04:09:57;0.88;;;0.50;;
58685;SDS011;44465;53.206;-6.106;2023-02-28T04:12:23;1.15;;;0.55;;
58685;SDS011;44465;53.206;-6.106;2023-02-28T04:14:49;0.95;;;0.50;;
58685;SDS011;44465;53.206;-6.106;2023-02-28T04:17:15;1.25;;;0.57;;
58685;SDS011;44465;53.206;-6.106;2023-02-28T04:19:41;0.90;;;0.50;;
58685;SDS011;44465;53.206;-6.106;2023-02-28T04:22:07;0.40;;;0.40;;
58685;SDS011;44465;53.206;-6.106;2023-02-28T04:24:34;0.93;;;0.40;;
58685;SDS011;44465;53.206;-6.106;2023-02-28T04:27:00;1.52;;;0.70;;
58685;SDS011;44465;53.206;-6.106;2023-02-28T04:29:27;0.63;;;0.50;;
58685;SDS011;44465;53.206;-6.106;2023-02-28T04:34:21;1.75;;;1.15;;
58685;SDS011;44465;53.206;-6.106;2023-02-28T04:36:47;1.45;;;0.55;;
58685;SDS011;44465;53.206;-6.106;2023-02-28T04:39:18;1.77;;;0.63;;
58685;SDS011;44465;53.206;-6.106;2023-02-28T04:41:45;1.23;;;0.60;;
58685;SDS011;44465;53.206;-6.106;2023-02-28T04:44:11;1.55;;;0.40;;
58685;SDS011;44465;53.206;-6.106;2023-02-28T04:46:37;3.17;;;0.70;;
58685;SDS011;44465;53.206;-6.106;2023-02-28T04:49:03;0.63;;;0.63;;
58685;SDS011;44465;53.206;-6.106;2023-02-28T04:51:28;0.55;;;0.50;;
58685;SDS011;44465;53.206;-6.106;2023-02-28T04:53:54;1.20;;;0.45;;
58685;SDS011;44465;53.206;-6.106;2023-02-28T04:56:20;0.60;;;0.60;;
58685;SDS011;44465;53.206;-6.106;2023-02-28T04:58:46;0.77;;;0.50;;
58685;SDS011;44465;53.206;-6.106;2023-02-28T05:03:49;1.05;;;0.43;;
58685;SDS011;44465;53.206;-6.106;2023-02-28T05:06:16;2.10;;;0.80;;
58685;SDS011;44465;53.206;-6.106;2023-02-28T05:08:42;1.10;;;0.52;;
58685;SDS011;44465;53.206;-6.106;2023-02-28T05:11:12;0.50;;;0.50;;
58685;SDS011;44465;53.206;-6.106;2023-02-28T05:13:40;0.73;;;0.50;;
58685;SDS011;44465;53.206;-6.106;2023-02-28T05:16:06;1.27;;;0.73;;
58685;SDS011;44465;53.206;-6.106;2023-02-28T05:18:31;2.97;;;0.60;;
58685;SDS011;44465;53.206;-6.106;2023-02-28T05:20:57;0.40;;;0.40;;
58685;SDS011;44465;53.206;-6.106;2023-02-28T05:23:22;0.63;;;0.40;;
58685;SDS011;44465;53.206;-6.106;2023-02-28T05:25:48;0.40;;;0.40;;
58685;SDS011;44465;53.206;-6.106;2023-02-28T05:28:14;1.33;;;0.52;;
58685;SDS011;44465;53.206;-6.106;2023-02-28T05:30:40;0.50;;;0.50;;
58685;SDS011;44465;53.206;-6.106;2023-02-28T05:33:05;1.00;;;0.50;;
58685;SDS011;44465;53.206;-6.106;2023-02-28T05:35:31;0.75;;;0.50;;
58685;SDS011;44465;53.206;-6.106;2023-02-28T05:37:57;0.90;;;0.45;;
58685;SDS011;44465;53.206;-6.106;2023-02-28T05:40:22;0.82;;;0.52;;
58685;SDS011;44465;53.206;-6.106;2023-02-28T05:42:49;1.45;;;0.60;;
58685;SDS011;44465;53.206;-6.106;2023-02-28T05:45:15;0.20;;;0.20;;
58685;SDS011;44465;53.206;-6.106;2023-02-28T05:47:42;0.40;;;0.30;;
58685;SDS011;44465;53.206;-6.106;2023-02-28T05:50:08;0.43;;;0.43;;
58685;SDS011;44465;53.206;-6.106;2023-02-28T05:52:35;0.60;;;0.40;;
58685;SDS011;44465;53.206;-6.106;2023-02-28T05:55:01;1.63;;;0.90;;
58685;SDS011;44465;53.206;-6.106;2023-02-28T05:57:27;0.63;;;0.40;;
58685;SDS011;44465;53.206;-6.106;2023-02-28T05:59:52;0.40;;;0.40;;
58685;SDS011;44465;53.206;-6.106;2023-02-28T06:02:18;0.65;;;0.50;;
58685;SDS011;44465;53.206;-6.106;2023-02-28T06:04:43;0.88;;;0.40;;
58685;SDS011;44465;53.206;-6.106;2023-02-28T06:07:10;1.65;;;0.40;;
58685;SDS011;44465;53.206;-6.106;2023-02-28T06:09:35;0.40;;;0.40;;
58685;SDS011;44465;53.206;-6.106;2023-02-28T06:12:02;0.50;;;0.50;;
58685;SDS011;44465;53.206;-6.106;2023-02-28T06:14:31;0.60;;;0.60;;
58685;SDS011;44465;53.206;-6.106;2023-02-28T06:16:58;0.37;;;0.37;;
58685;SDS011;44465;53.206;-6.106;2023-02-28T06:19:24;0.63;;;0.50;;
58685;SDS011;44465;53.206;-6.106;2023-02-28T06:21:54;1.13;;;0.50;;
58685;SDS011;44465;53.206;-6.106;2023-02-28T06:24:22;0.63;;;0.40;;
58685;SDS011;44465;53.206;-6.106;2023-02-28T06:29:15;0.98;;;0.40;;
58685;SDS011;44465;53.206;-6.106;2023-02-28T06:34:12;1.85;;;0.52;;
58685;SDS011;44465;53.206;-6.106;2023-02-28T06:36:39;1.83;;;0.30;;
58685;SDS011;44465;53.206;-6.106;2023-02-28T06:39:05;0.40;;;0.40;;
58685;SDS011;44465;53.206;-6.106;2023-02-28T06:41:30;0.88;;;0.30;;
58685;SDS011;44465;53.206;-6.106;2023-02-28T06:43:56;1.52;;;0.50;;
58685;SDS011;44465;53.206;-6.106;2023-02-28T06:46:22;1.80;;;0.50;;
58685;SDS011;44465;53.206;-6.106;2023-02-28T06:48:48;0.40;;;0.40;;
58685;SDS011;44465;53.206;-6.106;2023-02-28T06:51:15;0.52;;;0.40;;
58685;SDS011;44465;53.206;-6.106;2023-02-28T06:53:43;1.15;;;0.50;;
58685;SDS011;44465;53.206;-6.106;2023-02-28T06:56:10;1.75;;;0.68;;
58685;SDS011;44465;53.206;-6.106;2023-02-28T06:58:37;0.70;;;0.40;;
58685;SDS011;44465;53.206;-6.106;2023-02-28T07:01:04;1.75;;;0.65;;
58685;SDS011;44465;53.206;-6.106;2023-02-28T07:03:30;2.92;;;0.40;;
58685;SDS011;44465;53.206;-6.106;2023-02-28T07:05:56;0.68;;;0.50;;
58685;SDS011;44465;53.206;-6.106;2023-02-28T07:08:23;0.57;;;0.30;;
58685;SDS011;44465;53.206;-6.106;2023-02-28T07:10:53;0.40;;;0.40;;
58685;SDS011;44465;53.206;-6.106;2023-02-28T07:13:19;0.50;;;0.40;;
58685;SDS011;44465;53.206;-6.106;2023-02-28T07:15:44;1.17;;;0.40;;
58685;SDS011;44465;53.206;-6.106;2023-02-28T07:18:20;1.45;;;0.40;;
58685;SDS011;44465;53.206;-6.106;2023-02-28T07:20:45;0.40;;;0.40;;
58685;SDS011;44465;53.206;-6.106;2023-02-28T07:23:11;1.08;;;0.30;;
58685;SDS011;44465;53.206;-6.106;2023-02-28T07:25:36;1.58;;;0.47;;
58685;SDS011;44465;53.206;-6.106;2023-02-28T07:28:02;2.15;;;0.77;;
58685;SDS011;44465;53.206;-6.106;2023-02-28T07:30:27;0.82;;;0.40;;
58685;SDS011;44465;53.206;-6.106;2023-02-28T07:32:53;6.65;;;0.75;;
58685;SDS011;44465;53.206;-6.106;2023-02-28T07:35:21;0.95;;;0.40;;
58685;SDS011;44465;53.206;-6.106;2023-02-28T07:37:47;1.27;;;0.50;;
58685;SDS011;44465;53.206;-6.106;2023-02-28T07:40:13;0.73;;;0.60;;
58685;SDS011;44465;53.206;-6.106;2023-02-28T07:42:39;2.17;;;0.60;;
58685;SDS011;44465;53.206;-6.106;2023-02-28T07:45:08;1.35;;;0.52;;
58685;SDS011;44465;53.206;-6.106;2023-02-28T07:47:39;1.65;;;0.35;;
58685;SDS011;44465;53.206;-6.106;2023-02-28T07:50:07;0.98;;;0.40;;
58685;SDS011;44465;53.206;-6.106;2023-02-28T07:52:36;8.00;;;0.88;;
58685;SDS011;44465;53.206;-6.106;2023-02-28T07:55:02;3.67;;;0.82;;
58685;SDS011;44465;53.206;-6.106;2023-02-28T07:57:29;4.97;;;0.95;;
58685;SDS011;44465;53.206;-6.106;2023-02-28T07:59:55;7.00;;;1.23;;
58685;SDS011;44465;53.206;-6.106;2023-02-28T08:02:21;5.43;;;0.77;;
58685;SDS011;44465;53.206;-6.106;2023-02-28T08:04:46;4.30;;;0.80;;
58685;SDS011;44465;53.206;-6.106;2023-02-28T08:07:13;3.47;;;0.90;;
58685;SDS011;44465;53.206;-6.106;2023-02-28T08:09:39;6.43;;;1.00;;
58685;SDS011;44465;53.206;-6.106;2023-02-28T08:12:05;5.43;;;1.23;;
58685;SDS011;44465;53.206;-6.106;2023-02-28T08:14:32;2.67;;;0.82;;
58685;SDS011;44465;53.206;-6.106;2023-02-28T08:16:58;5.40;;;0.93;;
58685;SDS011;44465;53.206;-6.106;2023-02-28T08:19:23;2.05;;;0.77;;
58685;SDS011;44465;53.206;-6.106;2023-02-28T08:21:49;3.60;;;0.90;;
58685;SDS011;44465;53.206;-6.106;2023-02-28T08:24:14;2.65;;;0.73;;
58685;SDS011;44465;53.206;-6.106;2023-02-28T08:26:40;3.08;;;0.65;;
58685;SDS011;44465;53.206;-6.106;2023-02-28T08:29:05;5.65;;;0.90;;
58685;SDS011;44465;53.206;-6.106;2023-02-28T08:31:31;2.33;;;1.10;;
58685;SDS011;44465;53.206;-6.106;2023-02-28T08:33:56;3.28;;;0.65;;
58685;SDS011;44465;53.206;-6.106;2023-02-28T08:36:24;3.20;;;0.70;;
58685;SDS011;44465;53.206;-6.106;2023-02-28T08:38:50;3.30;;;0.80;;
58685;SDS011;44465;53.206;-6.106;2023-02-28T08:41:15;3.40;;;1.02;;
58685;SDS011;44465;53.206;-6.106;2023-02-28T08:43:41;2.80;;;0.57;;
58685;SDS011;44465;53.206;-6.106;2023-02-28T08:46:07;2.25;;;0.70;;
58685;SDS011;44465;53.206;-6.106;2023-02-28T08:48:36;3.08;;;0.60;;
58685;SDS011;44465;53.206;-6.106;2023-02-28T08:51:08;2.13;;;0.52;;
58685;SDS011;44465;53.206;-6.106;2023-02-28T08:53:37;3.60;;;0.80;;
58685;SDS011;44465;53.206;-6.106;2023-02-28T08:56:10;4.65;;;0.88;;
58685;SDS011;44465;53.206;-6.106;2023-02-28T08:58:37;7.88;;;0.90;;
58685;SDS011;44465;53.206;-6.106;2023-02-28T09:03:35;5.07;;;0.82;;
58685;SDS011;44465;53.206;-6.106;2023-02-28T09:06:01;5.75;;;1.00;;
58685;SDS011;44465;53.206;-6.106;2023-02-28T09:08:28;6.22;;;1.05;;
58685;SDS011;44465;53.206;-6.106;2023-02-28T09:10:55;7.25;;;0.95;;
58685;SDS011;44465;53.206;-6.106;2023-02-28T09:13:23;5.85;;;1.23;;
58685;SDS011;44465;53.206;-6.106;2023-02-28T09:15:49;24.90;;;2.60;;
58685;SDS011;44465;53.206;-6.106;2023-02-28T09:18:16;8.30;;;1.45;;
58685;SDS011;44465;53.206;-6.106;2023-02-28T09:20:41;13.85;;;1.52;;
58685;SDS011;44465;53.206;-6.106;2023-02-28T09:23:09;4.00;;;1.13;;
58685;SDS011;44465;53.206;-6.106;2023-02-28T09:25:35;8.82;;;1.00;;
58685;SDS011;44465;53.206;-6.106;2023-02-28T09:28:01;6.60;;;1.08;;
58685;SDS011;44465;53.206;-6.106;2023-02-28T09:30:28;12.88;;;1.90;;
58685;SDS011;44465;53.206;-6.106;2023-02-28T09:32:53;6.78;;;1.05;;
58685;SDS011;44465;53.206;-6.106;2023-02-28T09:35:20;11.50;;;1.02;;
58685;SDS011;44465;53.206;-6.106;2023-02-28T09:37:47;8.60;;;1.07;;
58685;SDS011;44465;53.206;-6.106;2023-02-28T09:40:13;7.63;;;1.40;;
58685;SDS011;44465;53.206;-6.106;2023-02-28T09:42:39;4.78;;;1.20;;
58685;SDS011;44465;53.206;-6.106;2023-02-28T09:45:11;7.15;;;0.90;;
58685;SDS011;44465;53.206;-6.106;2023-02-28T09:47:45;4.75;;;0.90;;
58685;SDS011;44465;53.206;-6.106;2023-02-28T09:52:45;1.77;;;0.70;;
58685;SDS011;44465;53.206;-6.106;2023-02-28T09:57:41;14.55;;;2.30;;
58685;SDS011;44465;53.206;-6.106;2023-02-28T10:00:18;7.22;;;1.30;;
58685;SDS011;44465;53.206;-6.106;2023-02-28T10:02:57;12.95;;;1.52;;
58685;SDS011;44465;53.206;-6.106;2023-02-28T10:05:25;10.52;;;1.27;;
58685;SDS011;44465;53.206;-6.106;2023-02-28T10:07:57;7.05;;;0.90;;
58685;SDS011;44465;53.206;-6.106;2023-02-28T10:13:06;5.72;;;0.93;;
58685;SDS011;44465;53.206;-6.106;2023-02-28T10:15:37;7.40;;;1.00;;
58685;SDS011;44465;53.206;-6.106;2023-02-28T10:18:04;3.30;;;0.80;;
58685;SDS011;44465;53.206;-6.106;2023-02-28T10:20:37;4.10;;;0.80;;
58685;SDS011;44465;53.206;-6.106;2023-02-28T10:23:09;2.47;;;0.65;;
58685;SDS011;44465;53.206;-6.106;2023-02-28T10:25:43;3.33;;;1.05;;
58685;SDS011;44465;53.206;-6.106;2023-02-28T10:28:15;6.55;;;1.13;;
58685;SDS011;44465;53.206;-6.106;2023-02-28T10:30:47;3.55;;;0.75;;
58685;SDS011;44465;53.206;-6.106;2023-02-28T10:33:35;2.88;;;0.60;;
58685;SDS011;44465;53.206;-6.106;2023-02-28T10:36:01;3.78;;;0.60;;
58685;SDS011;44465;53.206;-6.106;2023-02-28T10:41:08;1.55;;;0.40;;
58685;SDS011;44465;53.206;-6.106;2023-02-28T10:43:39;5.47;;;0.80;;
58685;SDS011;44465;53.206;-6.106;2023-02-28T10:48:38;4.38;;;0.65;;
58685;SDS011;44465;53.206;-6.106;2023-02-28T10:51:11;6.80;;;1.02;;
58685;SDS011;44465;53.206;-6.106;2023-02-28T10:53:49;3.88;;;0.77;;
58685;SDS011;44465;53.206;-6.106;2023-02-28T10:56:23;2.72;;;0.82;;
58685;SDS011;44465;53.206;-6.106;2023-02-28T11:01:16;2.80;;;0.40;;
58685;SDS011;44465;53.206;-6.106;2023-02-28T11:03:47;5.63;;;0.60;;
58685;SDS011;44465;53.206;-6.106;2023-02-28T11:06:18;3.30;;;0.60;;
58685;SDS011;44465;53.206;-6.106;2023-02-28T11:08:47;9.45;;;1.25;;
58685;SDS011;44465;53.206;-6.106;2023-02-28T11:11:15;6.38;;;1.02;;
58685;SDS011;44465;53.206;-6.106;2023-02-28T11:13:42;4.75;;;0.95;;
58685;SDS011;44465;53.206;-6.106;2023-02-28T11:16:10;6.78;;;0.90;;
58685;SDS011;44465;53.206;-6.106;2023-02-28T11:21:21;5.78;;;0.93;;
58685;SDS011;44465;53.206;-6.106;2023-02-28T11:23:52;6.45;;;0.73;;
58685;SDS011;44465;53.206;-6.106;2023-02-28T11:26:35;2.75;;;0.63;;
58685;SDS011;44465;53.206;-6.106;2023-02-28T11:29:10;6.03;;;0.95;;
58685;SDS011;44465;53.206;-6.106;2023-02-28T11:31:52;3.85;;;0.77;;
58685;SDS011;44465;53.206;-6.106;2023-02-28T11:34:30;7.97;;;1.30;;
58685;SDS011;44465;53.206;-6.106;2023-02-28T11:36:57;9.15;;;1.40;;
58685;SDS011;44465;53.206;-6.106;2023-02-28T11:39:25;9.35;;;1.52;;
58685;SDS011;44465;53.206;-6.106;2023-02-28T11:47:44;5.72;;;1.08;;
58685;SDS011;44465;53.206;-6.106;2023-02-28T11:50:39;5.20;;;0.80;;
58685;SDS011;44465;53.206;-6.106;2023-02-28T11:56:10;3.50;;;0.65;;
58685;SDS011;44465;53.206;-6.106;2023-02-28T11:58:54;3.22;;;0.77;;
58685;SDS011;44465;53.206;-6.106;2023-02-28T12:07:03;2.17;;;0.80;;
58685;SDS011;44465;53.206;-6.106;2023-02-28T12:12:30;10.40;;;1.67;;
58685;SDS011;44465;53.206;-6.106;2023-02-28T12:25:21;4.82;;;1.10;;
58685;SDS011;44465;53.206;-6.106;2023-02-28T12:27:51;8.70;;;1.60;;
58685;SDS011;44465;53.206;-6.106;2023-02-28T12:33:13;10.52;;;1.23;;
58685;SDS011;44465;53.206;-6.106;2023-02-28T12:35:49;5.03;;;1.33;;
58685;SDS011;44465;53.206;-6.106;2023-02-28T12:38:36;5.40;;;1.20;;
58685;SDS011;44465;53.206;-6.106;2023-02-28T12:41:13;8.52;;;1.20;;
58685;SDS011;44465;53.206;-6.106;2023-02-28T12:43:48;6.53;;;1.17;;
58685;SDS011;44465;53.206;-6.106;2023-02-28T12:46:23;4.15;;;1.02;;
58685;SDS011;44465;53.206;-6.106;2023-02-28T12:48:58;3.15;;;1.15;;
58685;SDS011;44465;53.206;-6.106;2023-02-28T12:51:45;7.20;;;1.15;;
58685;SDS011;44465;53.206;-6.106;2023-02-28T12:54:14;6.38;;;1.30;;
58685;SDS011;44465;53.206;-6.106;2023-02-28T12:59:23;6.78;;;0.93;;
58685;SDS011;44465;53.206;-6.106;2023-02-28T13:02:00;5.53;;;1.60;;
58685;SDS011;44465;53.206;-6.106;2023-02-28T13:04:43;6.30;;;1.10;;
58685;SDS011;44465;53.206;-6.106;2023-02-28T13:09:59;4.72;;;1.33;;
58685;SDS011;44465;53.206;-6.106;2023-02-28T13:12:27;7.22;;;1.27;;
58685;SDS011;44465;53.206;-6.106;2023-02-28T13:17:48;3.63;;;0.60;;
58685;SDS011;44465;53.206;-6.106;2023-02-28T13:20:23;4.65;;;1.00;;
58685;SDS011;44465;53.206;-6.106;2023-02-28T13:22:52;2.03;;;0.70;;
58685;SDS011;44465;53.206;-6.106;2023-02-28T13:27:52;2.90;;;0.88;;
58685;SDS011;44465;53.206;-6.106;2023-02-28T13:33:30;1.60;;;0.60;;
58685;SDS011;44465;53.206;-6.106;2023-02-28T13:38:48;1.10;;;0.60;;
58685;SDS011;44465;53.206;-6.106;2023-02-28T13:46:28;3.72;;;0.65;;
58685;SDS011;44465;53.206;-6.106;2023-02-28T13:48:54;1.77;;;0.50;;
58685;SDS011;44465;53.206;-6.106;2023-02-28T14:05:47;0.73;;;0.40;;
58685;SDS011;44465;53.206;-6.106;2023-02-28T14:09:03;1.65;;;0.70;;
58685;SDS011;44465;53.206;-6.106;2023-02-28T14:11:42;1.45;;;0.63;;
58685;SDS011;44465;53.206;-6.106;2023-02-28T14:14:09;2.05;;;0.95;;
58685;SDS011;44465;53.206;-6.106;2023-02-28T14:17:15;2.85;;;0.75;;
58685;SDS011;44465;53.206;-6.106;2023-02-28T14:19:44;1.50;;;0.80;;
58685;SDS011;44465;53.206;-6.106;2023-02-28T14:28:13;0.95;;;0.43;;
58685;SDS011;44465;53.206;-6.106;2023-02-28T14:39:14;3.13;;;0.80;;
58685;SDS011;44465;53.206;-6.106;2023-02-28T14:41:47;2.22;;;0.70;;
58685;SDS011;44465;53.206;-6.106;2023-02-28T14:44:14;1.17;;;0.47;;
58685;SDS011;44465;53.206;-6.106;2023-02-28T14:46:45;0.63;;;0.47;;
58685;SDS011;44465;53.206;-6.106;2023-02-28T14:49:16;2.92;;;0.73;;
58685;SDS011;44465;53.206;-6.106;2023-02-28T14:54:38;8.23;;;1.70;;
58685;SDS011;44465;53.206;-6.106;2023-02-28T14:57:05;7.18;;;1.42;;
58685;SDS011;44465;53.206;-6.106;2023-02-28T14:59:33;5.90;;;1.25;;
58685;SDS011;44465;53.206;-6.106;2023-02-28T15:02:19;8.30;;;1.33;;
58685;SDS011;44465;53.206;-6.106;2023-02-28T15:04:53;3.55;;;0.88;;
58685;SDS011;44465;53.206;-6.106;2023-02-28T15:07:19;6.45;;;1.80;;
58685;SDS011;44465;53.206;-6.106;2023-02-28T15:10:14;4.45;;;0.98;;
58685;SDS011;44465;53.206;-6.106;2023-02-28T15:12:57;10.20;;;1.40;;
58685;SDS011;44465;53.206;-6.106;2023-02-28T15:18:07;6.45;;;1.50;;
58685;SDS011;44465;53.206;-6.106;2023-02-28T15:20:41;4.13;;;0.85;;
58685;SDS011;44465;53.206;-6.106;2023-02-28T15:23:09;7.68;;;1.20;;
58685;SDS011;44465;53.206;-6.106;2023-02-28T15:25:36;3.60;;;1.17;;
58685;SDS011;44465;53.206;-6.106;2023-02-28T15:28:01;3.60;;;1.15;;
58685;SDS011;44465;53.206;-6.106;2023-02-28T15:30:28;1.95;;;1.10;;
58685;SDS011;44465;53.206;-6.106;2023-02-28T15:35:36;5.57;;;1.27;;
58685;SDS011;44465;53.206;-6.106;2023-02-28T15:40:43;3.33;;;1.20;;
58685;SDS011;44465;53.206;-6.106;2023-02-28T15:43:14;7.55;;;0.88;;
58685;SDS011;44465;53.206;-6.106;2023-02-28T15:46:04;5.35;;;0.80;;
58685;SDS011;44465;53.206;-6.106;2023-02-28T15:48:33;3.80;;;1.20;;
58685;SDS011;44465;53.206;-6.106;2023-02-28T15:51:05;5.18;;;1.40;;
58685;SDS011;44465;53.206;-6.106;2023-02-28T15:53:38;3.90;;;0.88;;
58685;SDS011;44465;53.206;-6.106;2023-02-28T15:56:20;3.05;;;0.90;;
58685;SDS011;44465;53.206;-6.106;2023-02-28T15:58:58;2.05;;;0.63;;
58685;SDS011;44465;53.206;-6.106;2023-02-28T16:04:36;3.45;;;0.90;;
58685;SDS011;44465;53.206;-6.106;2023-02-28T16:07:03;2.22;;;1.13;;
58685;SDS011;44465;53.206;-6.106;2023-02-28T16:09:30;3.17;;;1.00;;
58685;SDS011;44465;53.206;-6.106;2023-02-28T16:11:59;2.85;;;0.70;;
58685;SDS011;44465;53.206;-6.106;2023-02-28T16:14:27;3.83;;;0.90;;
58685;SDS011;44465;53.206;-6.106;2023-02-28T16:17:07;1.25;;;0.60;;
58685;SDS011;44465;53.206;-6.106;2023-02-28T16:19:41;2.53;;;0.80;;
58685;SDS011;44465;53.206;-6.106;2023-02-28T16:22:07;2.50;;;0.70;;
58685;SDS011;44465;53.206;-6.106;2023-02-28T16:24:34;5.25;;;1.48;;
58685;SDS011;44465;53.206;-6.106;2023-02-28T16:27:00;1.23;;;0.75;;
58685;SDS011;44465;53.206;-6.106;2023-02-28T16:29:27;0.80;;;0.80;;
58685;SDS011;44465;53.206;-6.106;2023-02-28T16:31:59;5.72;;;1.23;;
58685;SDS011;44465;53.206;-6.106;2023-02-28T16:34:25;15.70;;;2.60;;
58685;SDS011;44465;53.206;-6.106;2023-02-28T16:36:51;54.25;;;13.77;;
58685;SDS011;44465;53.206;-6.106;2023-02-28T16:39:17;39.00;;;11.05;;
58685;SDS011;44465;53.206;-6.106;2023-02-28T16:41:45;32.53;;;10.05;;
58685;SDS011;44465;53.206;-6.106;2023-02-28T16:44:33;77.18;;;13.00;;
58685;SDS011;44465;53.206;-6.106;2023-02-28T16:46:59;43.78;;;8.85;;
58685;SDS011;44465;53.206;-6.106;2023-02-28T16:49:25;31.00;;;6.45;;
58685;SDS011;44465;53.206;-6.106;2023-02-28T16:51:51;68.50;;;12.40;;
58685;SDS011;44465;53.206;-6.106;2023-02-28T16:54:17;20.80;;;5.60;;
58685;SDS011;44465;53.206;-6.106;2023-02-28T16:56:44;17.75;;;5.22;;
58685;SDS011;44465;53.206;-6.106;2023-02-28T16:59:11;23.73;;;5.03;;
58685;SDS011;44465;53.206;-6.106;2023-02-28T17:01:38;21.50;;;4.20;;
58685;SDS011;44465;53.206;-6.106;2023-02-28T17:04:04;25.83;;;4.38;;
58685;SDS011;44465;53.206;-6.106;2023-02-28T17:06:30;14.85;;;4.18;;
58685;SDS011;44465;53.206;-6.106;2023-02-28T17:08:56;15.85;;;3.83;;
58685;SDS011;44465;53.206;-6.106;2023-02-28T17:11:22;15.82;;;3.53;;
58685;SDS011;44465;53.206;-6.106;2023-02-28T17:13:49;11.50;;;3.65;;
58685;SDS011;44465;53.206;-6.106;2023-02-28T17:18:58;16.00;;;3.13;;
58685;SDS011;44465;53.206;-6.106;2023-02-28T17:21:26;11.02;;;2.75;;
58685;SDS011;44465;53.206;-6.106;2023-02-28T17:23:52;12.50;;;3.00;;
58685;SDS011;44465;53.206;-6.106;2023-02-28T17:26:18;15.10;;;3.33;;
58685;SDS011;44465;53.206;-6.106;2023-02-28T17:28:46;10.63;;;2.70;;
58685;SDS011;44465;53.206;-6.106;2023-02-28T17:31:14;10.90;;;3.40;;
58685;SDS011;44465;53.206;-6.106;2023-02-28T17:33:40;10.05;;;2.95;;